createdAt,value
2022-11-15T05:03:34.312Z,10.51
2022-11-15T05:08:05.246Z,10.48
2022-11-15T05:12:35.969Z,10.48
2022-11-15T05:17:06.047Z,10.48
2022-11-15T05:21:36.577Z,10.44
2022-11-15T05:26:09.442Z,10.42
2022-11-15T05:30:39.727Z,10.41
2022-11-15T05:35:16.300Z,10.42
2022-11-15T05:39:46.302Z,10.39
2022-11-15T05:44:20.964Z,10.40
2022-11-15T05:48:54.562Z,10.45
2022-11-15T05:53:26.906Z,10.42
2022-11-15T05:57:57.249Z,10.36
2022-11-15T06:02:27.590Z,10.34
2022-11-15T06:06:59.890Z,10.33
2022-11-15T06:11:30.258Z,10.31
2022-11-15T06:16:01.276Z,10.32
2022-11-15T06:20:31.736Z,10.30
2022-11-15T06:25:05.364Z,10.30
2022-11-15T06:29:35.817Z,10.28
2022-11-15T06:34:06.103Z,10.29
2022-11-15T06:38:37.353Z,10.27
2022-11-15T06:43:08.251Z,10.29
2022-11-15T06:47:46.675Z,10.29
2022-11-15T06:52:19.358Z,10.32
2022-11-15T06:56:49.682Z,10.29
2022-11-15T07:01:20.082Z,10.29
2022-11-15T07:06:01.409Z,10.30
2022-11-15T07:10:35.985Z,10.32
2022-11-15T07:15:07.137Z,10.28
2022-11-15T07:19:37.187Z,10.29
2022-11-15T07:24:07.658Z,10.29
2022-11-15T07:28:37.969Z,10.30
2022-11-15T07:33:08.136Z,10.28
2022-11-15T07:37:38.374Z,10.33
2022-11-15T07:42:27.330Z,10.38
2022-11-15T07:46:58.992Z,10.40
2022-11-15T07:51:29.357Z,10.41
2022-11-15T07:55:59.710Z,10.44
2022-11-15T08:00:30.374Z,10.45
2022-11-15T08:05:00.631Z,10.44
2022-11-15T08:09:31.085Z,10.48
2022-11-15T08:14:01.446Z,10.47
2022-11-15T08:18:31.891Z,10.47
2022-11-15T08:23:04.962Z,10.47
2022-11-15T08:27:35.366Z,10.51
2022-11-15T08:32:05.771Z,10.52
2022-11-15T08:36:44.588Z,10.55
2022-11-15T08:41:32.077Z,10.61
2022-11-15T08:46:02.424Z,10.69
2022-11-15T08:50:33.089Z,10.79
2022-11-15T08:55:03.371Z,10.88
2022-11-15T08:59:33.598Z,10.93
2022-11-15T09:04:04.874Z,10.96
2022-11-15T09:08:50.562Z,11.00
2022-11-15T09:13:20.689Z,11.04
2022-11-15T09:17:51.151Z,11.09
2022-11-15T09:22:21.570Z,11.10
2022-11-15T09:26:52.545Z,11.16
2022-11-15T09:31:22.986Z,11.22
2022-11-15T09:35:53.423Z,11.24
2022-11-15T09:40:24.883Z,11.28
2022-11-15T09:45:11.985Z,11.36
2022-11-15T09:49:42.497Z,11.41
2022-11-15T09:59:15.418Z,11.58
2022-11-15T10:03:35.107Z,11.67
2022-11-15T10:08:18.428Z,11.75
2022-11-15T10:12:30.984Z,11.89
2022-11-15T10:17:21.038Z,11.98
2022-11-15T10:21:50.280Z,11.96
2022-11-15T10:26:06.637Z,11.99
2022-11-15T10:30:19.796Z,12.07
2022-11-15T10:34:37.079Z,12.15
2022-11-15T10:38:51.571Z,12.33
2022-11-15T10:43:18.201Z,12.47
2022-11-15T10:47:37.818Z,12.57
2022-11-15T10:52:16.271Z,12.69
2022-11-15T10:56:28.310Z,12.80
2022-11-15T11:00:40.483Z,12.82
2022-11-15T11:04:52.847Z,12.79
2022-11-15T11:09:06.350Z,12.75
2022-11-15T11:13:28.443Z,12.77
2022-11-15T11:18:16.327Z,12.86
2022-11-15T11:22:39.349Z,12.93
2022-11-15T11:27:00.239Z,12.97
2022-11-15T11:31:48.439Z,12.96
2022-11-15T11:36:12.602Z,13.07
2022-11-15T11:41:09.253Z,13.06
2022-11-15T11:45:20.845Z,13.15
2022-11-15T11:49:53.702Z,13.17
2022-11-15T11:54:20.461Z,13.19
2022-11-15T11:58:39.652Z,13.21
2022-11-15T12:03:00.123Z,13.32
2022-11-15T12:07:17.053Z,13.41
2022-11-15T12:11:44.195Z,13.51
2022-11-15T12:16:10.364Z,13.63
2022-11-15T12:20:28.421Z,13.73
2022-11-15T12:24:44.814Z,13.70
2022-11-15T12:29:07.508Z,13.63
2022-11-15T12:33:36.456Z,13.58
2022-11-15T12:37:50.504Z,13.67
2022-11-15T12:42:04.890Z,13.61
2022-11-15T12:46:31.473Z,13.56
2022-11-15T12:50:52.566Z,13.48
2022-11-15T12:55:31.402Z,13.45
2022-11-15T13:00:07.690Z,13.41
2022-11-15T13:04:28.069Z,13.38
2022-11-15T13:08:42.088Z,13.35
2022-11-15T13:13:11.639Z,13.31
2022-11-15T13:17:23.094Z,13.31
2022-11-15T13:22:09.974Z,13.31
2022-11-15T13:26:22.315Z,13.28
2022-11-15T13:30:33.841Z,13.27
2022-11-15T13:34:52.738Z,13.27
2022-11-15T13:39:13.271Z,13.20
2022-11-15T13:43:30.568Z,13.25
2022-11-15T13:47:42.154Z,13.31
2022-11-15T13:51:55.852Z,13.31
2022-11-15T13:56:07.697Z,13.32
2022-11-15T14:00:45.798Z,13.24
2022-11-15T14:05:03.211Z,13.20
2022-11-15T14:09:14.746Z,13.12
2022-11-15T14:13:31.726Z,13.07
2022-11-15T14:17:49.777Z,13.03
2022-11-15T14:22:16.127Z,13.02
2022-11-15T14:26:38.265Z,12.96
2022-11-15T14:30:52.545Z,12.93
2022-11-15T14:35:04.868Z,13.01
2022-11-15T14:39:16.396Z,13.01
2022-11-15T14:43:27.910Z,13.00
2022-11-15T14:47:40.785Z,12.95
2022-11-15T14:51:52.323Z,12.92
2022-11-15T14:56:03.907Z,12.95
2022-11-15T15:00:16.004Z,12.87
2022-11-15T15:04:28.215Z,12.80
2022-11-15T15:08:40.669Z,12.74
2022-11-15T15:12:52.162Z,12.69
2022-11-15T15:17:03.663Z,12.62
2022-11-15T15:21:22.874Z,12.60
2022-11-15T15:25:35.830Z,12.57
2022-11-15T15:29:47.353Z,12.51
2022-11-15T15:33:58.859Z,12.51
2022-11-15T15:38:13.041Z,12.48
2022-11-15T15:42:24.812Z,12.44
2022-11-15T15:46:36.355Z,12.52
2022-11-15T15:50:48.257Z,12.43
2022-11-15T15:54:59.779Z,12.39
2022-11-15T15:59:11.315Z,12.34
2022-11-15T16:03:23.289Z,12.26
2022-11-15T16:07:34.981Z,12.22
2022-11-15T16:11:57.230Z,12.19
2022-11-15T16:16:13.517Z,12.21
2022-11-15T16:20:40.476Z,12.16
2022-11-15T16:24:52.115Z,12.14
2022-11-15T16:29:03.810Z,12.10
2022-11-15T16:33:15.426Z,12.06
2022-11-15T16:37:27.029Z,12.05
2022-11-15T16:41:38.663Z,11.97
2022-11-15T16:45:51.698Z,11.97
2022-11-15T16:50:03.406Z,11.91
2022-11-15T16:54:15.466Z,11.88
2022-11-15T16:58:27.268Z,11.89
2022-11-15T17:02:38.760Z,11.90
2022-11-15T17:06:50.410Z,11.90
2022-11-15T17:11:06.584Z,11.94
2022-11-15T17:15:18.667Z,11.89
2022-11-15T17:19:30.230Z,11.86
2022-11-15T17:23:42.494Z,11.83
2022-11-15T17:27:54.022Z,11.82
2022-11-15T17:32:05.598Z,11.81
2022-11-15T17:36:17.167Z,11.80
2022-11-15T17:40:28.687Z,11.80
2022-11-15T17:44:40.439Z,11.81
2022-11-15T17:48:52.111Z,11.74
2022-11-15T17:53:03.673Z,11.68
2022-11-15T17:57:15.219Z,11.66
2022-11-15T18:01:32.052Z,11.64
2022-11-15T18:05:43.970Z,11.60
2022-11-15T18:09:55.511Z,11.58
2022-11-15T18:14:12.648Z,11.57
2022-11-15T18:18:24.129Z,11.58
2022-11-15T18:22:35.676Z,11.55
2022-11-15T18:26:47.186Z,11.56
2022-11-15T18:30:59.482Z,11.55
2022-11-15T18:35:11.066Z,11.52
2022-11-15T18:39:22.665Z,11.51
2022-11-15T18:43:35.252Z,11.48
2022-11-15T18:47:46.880Z,11.46
2022-11-15T18:51:58.415Z,11.47
2022-11-15T18:56:15.097Z,11.48
2022-11-15T19:00:26.589Z,11.48
2022-11-15T19:04:38.081Z,11.46
2022-11-15T19:09:36.429Z,11.46
2022-11-15T19:13:48.041Z,11.45
2022-11-15T19:18:01.312Z,11.41
2022-11-15T19:22:12.801Z,11.43
2022-11-15T19:26:25.067Z,11.38
2022-11-15T19:30:36.569Z,11.35
2022-11-15T19:34:48.067Z,11.29
2022-11-15T19:39:05.069Z,11.28
2022-11-15T19:43:16.655Z,11.28
2022-11-15T19:47:28.439Z,11.24
2022-11-15T19:51:42.427Z,11.20
2022-11-15T19:56:02.060Z,11.18
2022-11-15T20:00:13.662Z,11.17
2022-11-15T20:04:25.156Z,11.13
2022-11-15T20:08:37.382Z,11.12
2022-11-15T20:12:49.015Z,11.09
2022-11-15T20:17:00.519Z,11.09
2022-11-15T20:21:12.347Z,11.06
2022-11-15T20:25:23.832Z,11.07
2022-11-15T20:29:35.321Z,11.08
2022-11-15T20:33:46.837Z,11.06
2022-11-15T20:37:58.339Z,11.07
2022-11-15T20:42:09.826Z,11.00
2022-11-15T20:46:21.379Z,10.96
2022-11-15T20:50:42.457Z,10.94
2022-11-15T20:54:54.461Z,10.92
2022-11-15T20:59:05.986Z,10.86
2022-11-15T21:03:17.483Z,10.83
2022-11-15T21:07:29.002Z,10.85
2022-11-15T21:11:59.569Z,10.81
2022-11-15T21:16:11.073Z,10.80
2022-11-15T21:25:14.493Z,10.81
2022-11-15T21:29:26.759Z,10.81
2022-11-15T21:39:48.846Z,10.78
2022-11-15T21:44:36.008Z,10.75
2022-11-15T22:05:18.311Z,10.74
2022-11-15T22:10:20.669Z,10.72
2022-11-15T22:21:01.221Z,10.70
2022-11-15T22:25:12.826Z,10.59
2022-11-15T22:29:24.455Z,10.63
